Time,TemperatureF,DewpointF,PressureIn,WindDirection,WindDirectionDegrees,WindSpeedMPH,WindSpeedGustMPH,Humidity,HourlyPrecipIn,Conditions,Clouds,dailyrainin,SoftwareType,DateUTC
2013-05-05 00:05:00,70.8,67.4,29.82,West,265,0.0,0.0,89,0.00,,,0.00,Wunderground v.1.15,2013-05-05 04:05:00,
2013-05-05 00:10:00,70.7,67.0,29.82,SW,233,0.0,0.0,88,0.00,,,0.00,Wunderground v.1.15,2013-05-05 04:10:00,
2013-05-05 00:15:00,70.6,67.2,29.82,WSW,248,1.0,1.0,89,0.00,,,0.00,Wunderground v.1.15,2013-05-05 04:15:00,
2013-05-05 00:20:00,70.5,66.8,29.82,WSW,249,0.0,1.0,88,0.00,,,0.00,Wunderground v.1.15,2013-05-05 04:20:00,
2013-05-05 00:25:00,70.5,66.8,29.81,West,264,0.0,1.0,88,0.00,,,0.00,Wunderground v.1.15,2013-05-05 04:25:00,
2013-05-05 00:30:00,70.4,66.7,29.82,West,265,0.0,1.0,88,0.00,,,0.00,Wunderground v.1.15,2013-05-05 04:30:00,
2013-05-05 00:35:00,70.2,66.8,29.82,West,279,0.0,0.0,89,0.00,,,0.00,Wunderground v.1.15,2013-05-05 04:35:00,
2013-05-05 00:45:00,69.9,66.5,29.82,West,278,0.0,1.0,89,0.00,,,0.00,Wunderground v.1.15,2013-05-05 04:45:00,
2013-05-05 00:50:00,69.7,66.3,29.82,West,278,0.0,1.0,89,0.00,,,0.00,Wunderground v.1.15,2013-05-05 04:50:00,
2013-05-05 01:00:00,69.7,66.3,29.81,West,281,0.0,1.0,89,0.00,,,0.00,Wunderground v.1.15,2013-05-05 05:00:00,
2013-05-05 01:10:00,69.7,66.3,29.82,West,269,1.0,1.0,89,0.00,,,0.00,Wunderground v.1.15,2013-05-05 05:10:00,
2013-05-05 01:15:00,69.7,66.3,29.82,West,264,1.0,3.0,89,0.00,,,0.00,Wunderground v.1.15,2013-05-05 05:15:00,
2013-05-05 01:25:00,69.7,66.3,29.82,West,268,0.0,3.0,89,0.00,,,0.00,Wunderground v.1.15,2013-05-05 05:25:00,
2013-05-05 01:30:00,69.5,66.1,29.82,West,268,0.0,3.0,89,0.00,,,0.01,Wunderground v.1.15,2013-05-05 05:30:00,
2013-05-05 01:35:00,69.3,65.9,29.81,WSW,248,0.0,3.0,89,0.00,,,0.01,Wunderground v.1.15,2013-05-05 05:35:00,
2013-05-05 01:45:00,68.9,65.8,29.81,WSW,255,0.0,3.0,90,0.00,,,0.01,Wunderground v.1.15,2013-05-05 05:45:00,
2013-05-05 01:55:00,68.4,65.4,29.81,WSW,255,0.0,3.0,90,0.00,,,0.01,Wunderground v.1.15,2013-05-05 05:55:00,
2013-05-05 02:00:00,68.4,65.4,29.82,WSW,257,0.0,3.0,90,0.00,,,0.01,Wunderground v.1.15,2013-05-05 06:00:00,
2013-05-05 02:05:00,68.3,65.3,29.81,West,262,0.0,3.0,90,0.00,,,0.01,Wunderground v.1.15,2013-05-05 06:05:00,
2013-05-05 02:15:00,68.2,65.2,29.81,West,262,0.0,3.0,90,0.00,,,0.01,Wunderground v.1.15,2013-05-05 06:15:00,
2013-05-05 02:20:00,68.0,65.0,29.81,NNW,346,0.0,3.0,90,0.00,,,0.01,Wunderground v.1.15,2013-05-05 06:20:00,
2013-05-05 02:30:00,67.7,64.7,29.81,NW,318,0.0,3.0,90,0.00,,,0.01,Wunderground v.1.15,2013-05-05 06:30:00,
2013-05-05 02:35:00,67.7,64.7,29.81,NW,318,0.0,3.0,90,0.00,,,0.01,Wunderground v.1.15,2013-05-05 06:35:00,
2013-05-05 02:45:00,67.7,64.7,29.81,NW,318,0.0,3.0,90,0.00,,,0.01,Wunderground v.1.15,2013-05-05 06:45:00,
2013-05-05 02:50:00,67.9,64.9,29.80,NW,316,0.0,3.0,90,0.00,,,0.01,Wunderground v.1.15,2013-05-05 06:50:00,
2013-05-05 02:55:00,67.9,64.9,29.80,NW,316,0.0,3.0,90,0.00,,,0.01,Wunderground v.1.15,2013-05-05 06:55:00,
2013-05-05 03:00:00,67.8,64.8,29.80,NW,317,0.0,3.0,90,0.00,,,0.01,Wunderground v.1.15,2013-05-05 07:00:00,
2013-05-05 03:10:00,67.5,64.5,29.80,NW,310,0.0,3.0,90,0.00,,,0.01,Wunderground v.1.15,2013-05-05 07:10:00,
2013-05-05 03:15:00,67.3,64.3,29.80,NW,310,0.0,3.0,90,0.00,,,0.01,Wunderground v.1.15,2013-05-05 07:15:00,
2013-05-05 03:20:00,67.2,64.2,29.81,NW,310,0.0,3.0,90,0.00,,,0.01,Wunderground v.1.15,2013-05-05 07:20:00,
2013-05-05 03:25:00,67.1,64.1,29.80,NW,310,0.0,3.0,90,0.00,,,0.01,Wunderground v.1.15,2013-05-05 07:25:00,
2013-05-05 03:30:00,66.9,63.9,29.80,NW,309,0.0,3.0,90,0.00,,,0.01,Wunderground v.1.15,2013-05-05 07:30:00,
2013-05-05 03:35:00,66.8,63.8,29.80,NW,309,0.0,3.0,90,0.00,,,0.01,Wunderground v.1.15,2013-05-05 07:35:00,
2013-05-05 03:45:00,66.8,63.5,29.80,NW,309,0.0,3.0,89,0.00,,,0.01,Wunderground v.1.15,2013-05-05 07:45:00,
2013-05-05 03:50:00,66.9,63.6,29.80,NW,309,0.0,3.0,89,0.00,,,0.01,Wunderground v.1.15,2013-05-05 07:50:00,
2013-05-05 03:55:00,67.0,63.3,29.81,NW,309,0.0,3.0,88,0.00,,,0.01,Wunderground v.1.15,2013-05-05 07:55:00,
2013-05-05 04:00:00,67.0,63.3,29.81,NW,309,0.0,3.0,88,0.00,,,0.01,Wunderground v.1.15,2013-05-05 08:00:00,
2013-05-05 04:05:00,67.0,63.0,29.81,NW,309,0.0,3.0,87,0.00,,,0.01,Wunderground v.1.15,2013-05-05 08:05:00,
2013-05-05 04:15:00,67.2,62.2,29.81,NW,309,0.0,3.0,84,0.00,,,0.01,Wunderground v.1.15,2013-05-05 08:15:00,
2013-05-05 04:20:00,67.5,62.5,29.81,NW,309,0.0,3.0,84,0.00,,,0.01,Wunderground v.1.15,2013-05-05 08:20:00,
2013-05-05 04:25:00,67.7,62.3,29.81,WNW,302,0.0,3.0,83,0.00,,,0.01,Wunderground v.1.15,2013-05-05 08:25:00,
2013-05-05 04:30:00,67.9,62.2,29.82,SW,227,0.0,3.0,82,0.00,,,0.01,Wunderground v.1.15,2013-05-05 08:30:00,
2013-05-05 04:35:00,67.9,61.9,29.82,SW,232,0.0,3.0,81,0.00,,,0.01,Wunderground v.1.15,2013-05-05 08:35:00,
2013-05-05 04:40:00,67.9,61.5,29.81,WSW,240,0.0,3.0,80,0.00,,,0.01,Wunderground v.1.15,2013-05-05 08:40:00,
2013-05-05 04:50:00,67.8,61.0,29.81,WSW,240,0.0,3.0,79,0.00,,,0.01,Wunderground v.1.15,2013-05-05 08:50:00,
2013-05-05 04:55:00,67.7,61.0,29.81,WSW,247,0.0,3.0,79,0.00,,,0.01,Wunderground v.1.15,2013-05-05 08:55:00,
2013-05-05 05:05:00,67.5,60.8,29.82,WSW,257,0.0,3.0,79,0.00,,,0.01,Wunderground v.1.15,2013-05-05 09:05:00,
2013-05-05 05:10:00,67.4,60.3,29.81,WSW,257,0.0,3.0,78,0.00,,,0.01,Wunderground v.1.15,2013-05-05 09:10:00,
2013-05-05 05:20:00,67.1,60.0,29.81,West,267,0.0,3.0,78,0.00,,,0.01,Wunderground v.1.15,2013-05-05 09:20:00,
2013-05-05 05:25:00,67.0,60.3,29.81,West,270,0.0,3.0,79,0.00,,,0.01,Wunderground v.1.15,2013-05-05 09:25:00,
2013-05-05 05:35:00,66.8,59.4,29.82,West,277,1.0,3.0,77,0.00,,,0.01,Wunderground v.1.15,2013-05-05 09:35:00,
2013-05-05 05:40:00,66.7,58.9,29.82,West,277,0.0,3.0,76,0.00,,,0.01,Wunderground v.1.15,2013-05-05 09:40:00,
2013-05-05 05:45:00,66.5,58.7,29.82,WNW,283,0.0,3.0,76,0.00,,,0.01,Wunderground v.1.15,2013-05-05 09:45:00,
2013-05-05 05:55:00,66.3,58.1,29.82,WNW,285,1.0,3.0,75,0.00,,,0.01,Wunderground v.1.15,2013-05-05 09:55:00,
2013-05-05 06:00:00,66.1,57.6,29.82,WNW,288,1.0,1.0,74,0.00,,,0.01,Wunderground v.1.15,2013-05-05 10:00:00,
2013-05-05 06:05:00,66.1,57.9,29.82,WNW,288,1.0,3.0,75,0.00,,,0.01,Wunderground v.1.15,2013-05-05 10:05:00,
2013-05-05 06:15:00,66.2,58.0,29.83,WNW,290,1.0,3.0,75,0.00,,,0.01,Wunderground v.1.15,2013-05-05 10:15:00,
2013-05-05 06:20:00,66.2,57.3,29.83,WNW,298,1.0,1.0,73,0.00,,,0.01,Wunderground v.1.15,2013-05-05 10:20:00,
2013-05-05 06:30:00,66.1,56.8,29.84,WNW,302,1.0,3.0,72,0.00,,,0.01,Wunderground v.1.15,2013-05-05 10:30:00,
2013-05-05 06:35:00,66.1,57.6,29.84,WNW,302,1.0,3.0,74,0.00,,,0.01,Wunderground v.1.15,2013-05-05 10:35:00,
2013-05-05 06:40:00,66.1,57.6,29.84,WNW,302,0.0,3.0,74,0.00,,,0.01,Wunderground v.1.15,2013-05-05 10:40:00,
2013-05-05 06:50:00,66.3,57.8,29.84,NW,312,1.0,1.0,74,0.00,,,0.01,Wunderground v.1.15,2013-05-05 10:50:00,
2013-05-05 07:00:00,66.3,57.0,29.85,NW,313,1.0,1.0,72,0.00,,,0.01,Wunderground v.1.15,2013-05-05 11:00:00,
2013-05-05 07:10:00,66.1,56.8,29.86,NW,311,1.0,3.0,72,0.00,,,0.01,Wunderground v.1.15,2013-05-05 11:10:00,
2013-05-05 07:15:00,66.2,57.3,29.86,WNW,302,1.0,3.0,73,0.00,,,0.01,Wunderground v.1.15,2013-05-05 11:15:00,
2013-05-05 07:20:00,66.2,57.3,29.87,NW,307,1.0,3.0,73,0.00,,,0.01,Wunderground v.1.15,2013-05-05 11:20:00,
2013-05-05 07:30:00,66.2,56.9,29.86,NW,309,0.0,3.0,72,0.00,,,0.01,Wunderground v.1.15,2013-05-05 11:30:00,
2013-05-05 07:35:00,66.0,56.7,29.87,NW,309,1.0,3.0,72,0.00,,,0.01,Wunderground v.1.15,2013-05-05 11:35:00,
2013-05-05 07:45:00,66.1,57.6,29.87,NW,315,1.0,3.0,74,0.00,,,0.01,Wunderground v.1.15,2013-05-05 11:45:00,
2013-05-05 07:55:00,66.3,57.0,29.88,NW,319,2.0,3.0,72,0.00,,,0.01,Wunderground v.1.15,2013-05-05 11:55:00,
2013-05-05 08:00:00,66.3,57.0,29.87,NW,319,1.0,1.0,72,0.00,,,0.01,Wunderground v.1.15,2013-05-05 12:00:00,
2013-05-05 08:10:00,66.3,56.2,29.88,NW,320,1.0,1.0,70,0.00,,,0.01,Wunderground v.1.15,2013-05-05 12:10:00,
2013-05-05 08:15:00,66.3,56.6,29.89,NW,320,1.0,3.0,71,0.00,,,0.01,Wunderground v.1.15,2013-05-05 12:15:00,
2013-05-05 08:20:00,66.3,56.2,29.89,NW,320,0.0,3.0,70,0.00,,,0.01,Wunderground v.1.15,2013-05-05 12:20:00,
2013-05-05 08:30:00,66.3,54.6,29.88,NW,320,1.0,3.0,66,0.00,,,0.01,Wunderground v.1.15,2013-05-05 12:30:00,
2013-05-05 08:35:00,66.3,54.2,29.89,NW,321,1.0,3.0,65,0.00,,,0.01,Wunderground v.1.15,2013-05-05 12:35:00,
2013-05-05 08:45:00,66.6,54.0,29.89,NW,321,1.0,3.0,64,0.00,,,0.01,Wunderground v.1.15,2013-05-05 12:45:00,
2013-05-05 08:50:00,66.8,54.2,29.89,NW,326,1.0,3.0,64,0.00,,,0.01,Wunderground v.1.15,2013-05-05 12:50:00,
2013-05-05 09:00:00,67.2,54.6,29.90,NNW,327,2.0,3.0,64,0.00,,,0.01,Wunderground v.1.15,2013-05-05 13:00:00,
2013-05-05 09:10:00,67.3,52.9,29.90,NNW,331,2.0,2.0,60,0.00,,,0.01,Wunderground v.1.15,2013-05-05 13:10:00,
2013-05-05 09:15:00,67.5,54.0,29.90,NW,323,2.0,3.0,62,0.00,,,0.01,Wunderground v.1.15,2013-05-05 13:15:00,
2013-05-05 09:20:00,67.8,54.7,29.90,NW,323,1.0,3.0,63,0.00,,,0.01,Wunderground v.1.15,2013-05-05 13:20:00,
2013-05-05 09:25:00,68.0,54.9,29.91,NW,323,1.0,3.0,63,0.00,,,0.01,Wunderground v.1.15,2013-05-05 13:25:00,
2013-05-05 09:35:00,68.3,54.8,29.90,NNW,327,1.0,5.0,62,0.00,,,0.01,Wunderground v.1.15,2013-05-05 13:35:00,
2013-05-05 09:40:00,68.5,55.0,29.91,NNW,329,2.0,3.0,62,0.00,,,0.01,Wunderground v.1.15,2013-05-05 13:40:00,
2013-05-05 09:50:00,68.6,54.6,29.91,NNW,329,2.0,3.0,61,0.00,,,0.01,Wunderground v.1.15,2013-05-05 13:50:00,
2013-05-05 09:55:00,68.8,54.3,29.91,NNW,329,2.0,3.0,60,0.00,,,0.01,Wunderground v.1.15,2013-05-05 13:55:00,
2013-05-05 10:05:00,69.0,55.0,29.92,NNW,329,2.0,3.0,61,0.00,,,0.01,Wunderground v.1.15,2013-05-05 14:05:00,
2013-05-05 10:10:00,68.9,54.4,29.92,NNW,329,2.0,3.0,60,0.00,,,0.01,Wunderground v.1.15,2013-05-05 14:10:00,
2013-05-05 10:20:00,69.2,54.3,29.92,NW,314,1.0,1.0,59,0.00,,,0.01,Wunderground v.1.15,2013-05-05 14:20:00,
2013-05-05 10:25:00,69.4,54.0,29.92,NW,319,2.0,2.0,58,0.00,,,0.01,Wunderground v.1.15,2013-05-05 14:25:00,
2013-05-05 10:30:00,69.4,54.0,29.93,NW,319,2.0,2.0,58,0.00,,,0.01,Wunderground v.1.15,2013-05-05 14:30:00,
2013-05-05 10:35:00,69.4,54.4,29.93,NW,322,2.0,3.0,59,0.00,,,0.01,Wunderground v.1.15,2013-05-05 14:35:00,
2013-05-05 10:45:00,69.8,54.4,29.93,NW,322,1.0,3.0,58,0.00,,,0.01,Wunderground v.1.15,2013-05-05 14:45:00,
2013-05-05 10:50:00,70.1,54.6,29.93,NW,321,0.0,3.0,58,0.00,,,0.01,Wunderground v.1.15,2013-05-05 14:50:00,
2013-05-05 10:55:00,70.3,54.8,29.93,NW,316,1.0,3.0,58,0.00,,,0.01,Wunderground v.1.15,2013-05-05 14:55:00,
2013-05-05 11:05:00,70.4,54.4,29.93,NW,323,2.0,2.0,57,0.00,,,0.01,Wunderground v.1.15,2013-05-05 15:05:00,
2013-05-05 11:10:00,70.5,55.0,29.93,NW,323,1.0,3.0,58,0.00,,,0.01,Wunderground v.1.15,2013-05-05 15:10:00,
2013-05-05 11:15:00,70.5,54.5,29.93,NW,323,1.0,3.0,57,0.00,,,0.01,Wunderground v.1.15,2013-05-05 15:15:00,
2013-05-05 11:25:00,70.7,55.2,29.93,NW,323,1.0,4.0,58,0.00,,,0.01,Wunderground v.1.15,2013-05-05 15:25:00,
2013-05-05 11:35:00,70.9,53.4,29.93,NW,325,1.0,2.0,54,0.00,,,0.01,Wunderground v.1.15,2013-05-05 15:35:00,
2013-05-05 11:40:00,71.1,54.1,29.93,NW,325,1.0,3.0,55,0.00,,,0.01,Wunderground v.1.15,2013-05-05 15:40:00,
2013-05-05 11:50:00,71.5,54.0,29.93,NW,323,2.0,5.0,54,0.00,,,0.01,Wunderground v.1.15,2013-05-05 15:50:00,
2013-05-05 12:00:00,71.4,53.9,29.93,NNW,330,2.0,2.0,54,0.00,,,0.01,Wunderground v.1.15,2013-05-05 16:00:00,
2013-05-05 12:10:00,72.1,53.5,29.93,NW,325,1.0,3.0,52,0.00,,,0.01,Wunderground v.1.15,2013-05-05 16:10:00,
2013-05-05 12:20:00,72.3,53.7,29.93,NNW,328,2.0,2.0,52,0.00,,,0.01,Wunderground v.1.15,2013-05-05 16:20:00,
2013-05-05 12:30:00,72.4,53.2,29.93,NNW,327,1.0,3.0,51,0.00,,,0.01,Wunderground v.1.15,2013-05-05 16:30:00,
2013-05-05 12:35:00,72.3,53.7,29.93,NNW,330,2.0,3.0,52,0.00,,,0.01,Wunderground v.1.15,2013-05-05 16:35:00,
2013-05-05 12:45:00,72.8,53.6,29.93,NNW,329,2.0,3.0,51,0.00,,,0.01,Wunderground v.1.15,2013-05-05 16:45:00,
2013-05-05 12:55:00,72.9,54.2,29.92,NW,325,1.0,3.0,52,0.00,,,0.01,Wunderground v.1.15,2013-05-05 16:55:00,
2013-05-05 13:00:00,72.9,52.6,29.93,NNW,330,2.0,4.0,49,0.00,,,0.01,Wunderground v.1.15,2013-05-05 17:00:00,
2013-05-05 13:10:00,73.2,53.4,29.92,NNW,330,1.0,3.0,50,0.00,,,0.01,Wunderground v.1.15,2013-05-05 17:10:00,
2013-05-05 13:20:00,73.4,54.7,29.92,NW,313,2.0,2.0,52,0.00,,,0.01,Wunderground v.1.15,2013-05-05 17:20:00,
2013-05-05 13:25:00,73.8,54.0,29.92,NW,313,1.0,3.0,50,0.00,,,0.01,Wunderground v.1.15,2013-05-05 17:25:00,
2013-05-05 13:35:00,73.7,54.4,29.92,NW,313,1.0,3.0,51,0.00,,,0.01,Wunderground v.1.15,2013-05-05 17:35:00,
2013-05-05 13:45:00,74.2,54.9,29.92,NW,318,1.0,3.0,51,0.00,,,0.01,Wunderground v.1.15,2013-05-05 17:45:00,
2013-05-05 13:50:00,74.5,54.1,29.92,West,271,1.0,3.0,49,0.00,,,0.01,Wunderground v.1.15,2013-05-05 17:50:00,
2013-05-05 13:55:00,74.4,54.0,29.92,NW,309,2.0,4.0,49,0.00,,,0.01,Wunderground v.1.15,2013-05-05 17:55:00,
2013-05-05 14:00:00,74.1,54.3,29.92,NW,319,2.0,2.0,50,0.00,,,0.01,Wunderground v.1.15,2013-05-05 18:00:00,
2013-05-05 14:10:00,74.6,53.6,29.92,WNW,298,1.0,1.0,48,0.00,,,0.01,Wunderground v.1.15,2013-05-05 18:10:00,
2013-05-05 14:15:00,74.7,54.3,29.92,NW,308,1.0,2.0,49,0.00,,,0.01,Wunderground v.1.15,2013-05-05 18:15:00,
2013-05-05 14:25:00,74.6,54.7,29.92,NW,311,1.0,3.0,50,0.00,,,0.01,Wunderground v.1.15,2013-05-05 18:25:00,
2013-05-05 14:30:00,74.6,55.8,29.92,NW,311,1.0,3.0,52,0.00,,,0.01,Wunderground v.1.15,2013-05-05 18:30:00,
2013-05-05 14:35:00,74.9,56.6,29.92,WNW,290,1.0,3.0,53,0.00,,,0.01,Wunderground v.1.15,2013-05-05 18:35:00,
2013-05-05 14:40:00,74.8,56.5,29.92,WNW,297,1.0,3.0,53,0.00,,,0.01,Wunderground v.1.15,2013-05-05 18:40:00,
2013-05-05 14:45:00,74.7,56.4,29.92,NW,308,1.0,3.0,53,0.00,,,0.01,Wunderground v.1.15,2013-05-05 18:45:00,
2013-05-05 14:50:00,74.4,56.7,29.92,WNW,302,2.0,3.0,54,0.00,,,0.01,Wunderground v.1.15,2013-05-05 18:50:00,
2013-05-05 15:00:00,74.0,56.8,29.91,NW,317,1.0,3.0,55,0.00,,,0.01,Wunderground v.1.15,2013-05-05 19:00:00,
2013-05-05 15:05:00,74.1,56.4,29.91,NW,318,1.0,3.0,54,0.00,,,0.01,Wunderground v.1.15,2013-05-05 19:05:00,
2013-05-05 15:10:00,74.2,56.5,29.91,NW,317,1.0,3.0,54,0.00,,,0.01,Wunderground v.1.15,2013-05-05 19:10:00,
2013-05-05 15:15:00,74.2,56.5,29.91,WNW,302,2.0,3.0,54,0.00,,,0.01,Wunderground v.1.15,2013-05-05 19:15:00,
2013-05-05 15:20:00,74.5,56.8,29.91,WNW,302,2.0,3.0,54,0.00,,,0.01,Wunderground v.1.15,2013-05-05 19:20:00,
2013-05-05 15:25:00,74.5,56.2,29.91,WNW,285,1.0,3.0,53,0.00,,,0.01,Wunderground v.1.15,2013-05-05 19:25:00,
2013-05-05 15:30:00,74.7,56.9,29.91,West,277,1.0,1.0,54,0.00,,,0.01,Wunderground v.1.15,2013-05-05 19:30:00,
2013-05-05 15:35:00,74.4,56.2,29.91,NW,319,2.0,2.0,53,0.00,,,0.01,Wunderground v.1.15,2013-05-05 19:35:00,
2013-05-05 15:40:00,74.6,55.8,29.90,NW,319,1.0,5.0,52,0.00,,,0.01,Wunderground v.1.15,2013-05-05 19:40:00,
2013-05-05 15:50:00,74.1,55.9,29.90,West,275,2.0,3.0,53,0.00,,,0.01,Wunderground v.1.15,2013-05-05 19:50:00,
2013-05-05 15:55:00,74.6,55.8,29.90,WNW,296,1.0,4.0,52,0.00,,,0.01,Wunderground v.1.15,2013-05-05 19:55:00,
2013-05-05 16:00:00,74.4,55.6,29.90,NW,311,1.0,3.0,52,0.00,,,0.01,Wunderground v.1.15,2013-05-05 20:00:00,
2013-05-05 16:05:00,74.1,54.8,29.90,WNW,303,2.0,3.0,51,0.00,,,0.01,Wunderground v.1.15,2013-05-05 20:05:00,
2013-05-05 16:10:00,73.8,55.6,29.90,WNW,298,1.0,3.0,53,0.00,,,0.01,Wunderground v.1.15,2013-05-05 20:10:00,
2013-05-05 16:20:00,73.7,56.5,29.91,WNW,303,1.0,1.0,55,0.00,,,0.01,Wunderground v.1.15,2013-05-05 20:20:00,
2013-05-05 16:30:00,73.7,55.0,29.90,NNW,327,2.0,3.0,52,0.00,,,0.01,Wunderground v.1.15,2013-05-05 20:30:00,
2013-05-05 16:40:00,74.0,55.3,29.90,WNW,283,1.0,1.0,52,0.00,,,0.01,Wunderground v.1.15,2013-05-05 20:40:00,
2013-05-05 16:45:00,73.9,55.7,29.90,NW,315,1.0,2.0,53,0.00,,,0.01,Wunderground v.1.15,2013-05-05 20:45:00,
2013-05-05 16:50:00,73.7,56.0,29.91,WNW,301,1.0,3.0,54,0.00,,,0.01,Wunderground v.1.15,2013-05-05 20:50:00,
2013-05-05 16:55:00,73.9,57.2,29.90,NW,311,1.0,3.0,56,0.00,,,0.01,Wunderground v.1.15,2013-05-05 20:55:00,
2013-05-05 17:00:00,73.9,56.7,29.90,NNW,327,1.0,3.0,55,0.00,,,0.01,Wunderground v.1.15,2013-05-05 21:00:00,
2013-05-05 17:10:00,73.8,56.6,29.91,NW,306,1.0,3.0,55,0.00,,,0.01,Wunderground v.1.15,2013-05-05 21:10:00,
2013-05-05 17:15:00,73.8,56.1,29.91,NW,305,1.0,3.0,54,0.00,,,0.01,Wunderground v.1.15,2013-05-05 21:15:00,
2013-05-05 17:20:00,73.7,57.0,29.91,WNW,294,1.0,1.0,56,0.00,,,0.01,Wunderground v.1.15,2013-05-05 21:20:00,
2013-05-05 17:25:00,73.7,56.5,29.91,WNW,284,1.0,3.0,55,0.00,,,0.01,Wunderground v.1.15,2013-05-05 21:25:00,
2013-05-05 17:30:00,73.7,57.0,29.91,WNW,290,1.0,1.0,56,0.00,,,0.01,Wunderground v.1.15,2013-05-05 21:30:00,
2013-05-05 17:35:00,73.8,57.6,29.91,WNW,290,1.0,3.0,57,0.00,,,0.01,Wunderground v.1.15,2013-05-05 21:35:00,
2013-05-05 17:40:00,74.0,57.8,29.91,WNW,290,0.0,3.0,57,0.00,,,0.01,Wunderground v.1.15,2013-05-05 21:40:00,
2013-05-05 17:45:00,73.9,57.2,29.91,WNW,296,1.0,3.0,56,0.00,,,0.01,Wunderground v.1.15,2013-05-05 21:45:00,
2013-05-05 17:50:00,73.5,57.3,29.91,WNW,298,1.0,3.0,57,0.00,,,0.01,Wunderground v.1.15,2013-05-05 21:50:00,
2013-05-05 17:55:00,73.1,57.4,29.91,WSW,256,1.0,3.0,58,0.00,,,0.01,Wunderground v.1.15,2013-05-05 21:55:00,
2013-05-05 18:05:00,72.6,57.9,29.91,NW,304,1.0,3.0,60,0.00,,,0.01,Wunderground v.1.15,2013-05-05 22:05:00,
2013-05-05 18:10:00,72.4,58.2,29.91,WNW,299,1.0,1.0,61,0.00,,,0.01,Wunderground v.1.15,2013-05-05 22:10:00,
2013-05-05 18:15:00,72.1,57.9,29.91,WNW,290,1.0,3.0,61,0.00,,,0.01,Wunderground v.1.15,2013-05-05 22:15:00,
2013-05-05 18:20:00,72.0,58.3,29.91,West,277,1.0,3.0,62,0.00,,,0.01,Wunderground v.1.15,2013-05-05 22:20:00,
2013-05-05 18:25:00,71.9,58.2,29.91,WNW,282,0.0,3.0,62,0.00,,,0.01,Wunderground v.1.15,2013-05-05 22:25:00,
2013-05-05 18:35:00,71.9,58.2,29.91,WNW,287,0.0,3.0,62,0.00,,,0.01,Wunderground v.1.15,2013-05-05 22:35:00,
2013-05-05 18:40:00,71.9,58.2,29.92,WNW,284,0.0,3.0,62,0.00,,,0.01,Wunderground v.1.15,2013-05-05 22:40:00,
2013-05-05 18:45:00,71.8,58.5,29.92,WNW,284,0.0,3.0,63,0.00,,,0.01,Wunderground v.1.15,2013-05-05 22:45:00,
2013-05-05 18:50:00,71.8,58.5,29.92,WNW,288,1.0,1.0,63,0.00,,,0.01,Wunderground v.1.15,2013-05-05 22:50:00,
2013-05-05 19:00:00,71.6,58.8,29.91,WNW,288,0.0,3.0,64,0.00,,,0.01,Wunderground v.1.15,2013-05-05 23:00:00,
2013-05-05 19:10:00,71.4,58.6,29.92,WNW,284,0.0,3.0,64,0.00,,,0.01,Wunderground v.1.15,2013-05-05 23:10:00,
2013-05-05 19:20:00,71.2,58.4,29.92,WNW,285,0.0,3.0,64,0.00,,,0.01,Wunderground v.1.15,2013-05-05 23:20:00,
2013-05-05 19:25:00,71.0,58.6,29.92,WNW,285,0.0,3.0,65,0.00,,,0.01,Wunderground v.1.15,2013-05-05 23:25:00,
2013-05-05 19:30:00,70.8,58.9,29.92,WNW,285,0.0,3.0,66,0.00,,,0.01,Wunderground v.1.15,2013-05-05 23:30:00,
2013-05-05 19:35:00,70.7,58.8,29.92,WNW,285,0.0,3.0,66,0.00,,,0.01,Wunderground v.1.15,2013-05-05 23:35:00,
2013-05-05 19:40:00,70.5,58.6,29.92,WNW,284,0.0,3.0,66,0.00,,,0.01,Wunderground v.1.15,2013-05-05 23:40:00,
2013-05-05 19:45:00,70.3,58.4,29.92,WNW,284,0.0,3.0,66,0.00,,,0.01,Wunderground v.1.15,2013-05-05 23:45:00,
2013-05-05 19:50:00,70.1,58.6,29.92,WNW,284,0.0,3.0,67,0.00,,,0.01,Wunderground v.1.15,2013-05-05 23:50:00,
2013-05-05 20:00:00,69.9,58.9,29.92,WNW,284,0.0,3.0,68,0.00,,,0.01,Wunderground v.1.15,2013-05-06 00:00:00,
2013-05-05 20:05:00,69.7,58.7,29.92,WNW,284,0.0,3.0,68,0.00,,,0.01,Wunderground v.1.15,2013-05-06 00:05:00,
2013-05-05 20:15:00,69.3,58.7,29.93,WNW,284,0.0,3.0,69,0.00,,,0.01,Wunderground v.1.15,2013-05-06 00:15:00,
2013-05-05 20:20:00,69.1,58.5,29.93,WNW,284,0.0,3.0,69,0.00,,,0.01,Wunderground v.1.15,2013-05-06 00:20:00,
2013-05-05 20:30:00,68.8,58.6,29.93,WNW,284,0.0,3.0,70,0.00,,,0.01,Wunderground v.1.15,2013-05-06 00:30:00,
2013-05-05 20:35:00,68.6,58.4,29.93,WNW,284,0.0,3.0,70,0.00,,,0.01,Wunderground v.1.15,2013-05-06 00:35:00,
2013-05-05 20:40:00,68.5,58.7,29.93,WNW,284,0.0,3.0,71,0.00,,,0.01,Wunderground v.1.15,2013-05-06 00:40:00,
2013-05-05 20:50:00,68.3,58.5,29.93,WNW,284,0.0,3.0,71,0.00,,,0.01,Wunderground v.1.15,2013-05-06 00:50:00,
2013-05-05 20:55:00,68.2,58.8,29.93,WNW,284,0.0,3.0,72,0.00,,,0.01,Wunderground v.1.15,2013-05-06 00:55:00,
2013-05-05 21:00:00,68.1,58.7,29.93,WNW,284,0.0,3.0,72,0.00,,,0.01,Wunderground v.1.15,2013-05-06 01:00:00,
2013-05-05 21:05:00,68.0,59.0,29.93,WNW,284,0.0,3.0,73,0.00,,,0.01,Wunderground v.1.15,2013-05-06 01:05:00,
2013-05-05 21:10:00,67.9,58.9,29.93,WNW,284,0.0,3.0,73,0.00,,,0.01,Wunderground v.1.15,2013-05-06 01:10:00,
2013-05-05 21:15:00,67.7,58.7,29.93,WNW,284,0.0,3.0,73,0.00,,,0.01,Wunderground v.1.15,2013-05-06 01:15:00,
2013-05-05 21:20:00,67.6,59.0,29.93,WNW,284,0.0,3.0,74,0.00,,,0.01,Wunderground v.1.15,2013-05-06 01:20:00,
2013-05-05 21:25:00,67.5,58.9,29.93,WNW,284,0.0,3.0,74,0.00,,,0.01,Wunderground v.1.15,2013-05-06 01:25:00,
2013-05-05 21:30:00,67.4,58.8,29.93,WNW,284,0.0,3.0,74,0.00,,,0.01,Wunderground v.1.15,2013-05-06 01:30:00,
2013-05-05 21:40:00,67.5,59.3,29.93,WNW,284,0.0,3.0,75,0.00,,,0.01,Wunderground v.1.15,2013-05-06 01:40:00,
2013-05-05 21:45:00,67.6,59.4,29.94,WNW,284,0.0,3.0,75,0.00,,,0.01,Wunderground v.1.15,2013-05-06 01:45:00,
2013-05-05 21:50:00,67.7,59.1,29.94,WNW,284,0.0,3.0,74,0.00,,,0.01,Wunderground v.1.15,2013-05-06 01:50:00,
2013-05-05 22:00:00,67.7,59.5,29.94,WNW,284,0.0,3.0,75,0.00,,,0.01,Wunderground v.1.15,2013-05-06 02:00:00,
2013-05-05 22:10:00,67.7,59.5,29.94,WNW,284,0.0,3.0,75,0.00,,,0.01,Wunderground v.1.15,2013-05-06 02:10:00,
2013-05-05 22:15:00,67.8,60.0,29.95,WNW,284,0.0,3.0,76,0.00,,,0.01,Wunderground v.1.15,2013-05-06 02:15:00,
2013-05-05 22:25:00,67.8,60.0,29.95,WNW,284,0.0,3.0,76,0.00,,,0.01,Wunderground v.1.15,2013-05-06 02:25:00,
2013-05-05 22:30:00,67.8,60.0,29.95,West,280,0.0,3.0,76,0.00,,,0.01,Wunderground v.1.15,2013-05-06 02:30:00,
2013-05-05 22:35:00,67.9,60.1,29.95,West,280,0.0,3.0,76,0.00,,,0.01,Wunderground v.1.15,2013-05-06 02:35:00,
2013-05-05 22:40:00,67.9,60.1,29.95,West,274,0.0,3.0,76,0.00,,,0.01,Wunderground v.1.15,2013-05-06 02:40:00,
2013-05-05 22:45:00,68.0,60.2,29.95,West,273,0.0,3.0,76,0.00,,,0.01,Wunderground v.1.15,2013-05-06 02:45:00,
2013-05-05 22:50:00,68.0,60.2,29.95,West,273,0.0,3.0,76,0.00,,,0.01,Wunderground v.1.15,2013-05-06 02:50:00,
2013-05-05 23:00:00,68.3,59.7,29.95,West,269,0.0,3.0,74,0.00,,,0.01,Wunderground v.1.15,2013-05-06 03:00:00,
2013-05-05 23:05:00,68.4,59.8,29.95,West,269,0.0,3.0,74,0.00,,,0.01,Wunderground v.1.15,2013-05-06 03:05:00,
2013-05-05 23:10:00,68.5,59.9,29.95,West,266,0.0,3.0,74,0.00,,,0.01,Wunderground v.1.15,2013-05-06 03:10:00,
2013-05-05 23:15:00,68.6,60.0,29.95,West,263,0.0,3.0,74,0.00,,,0.01,Wunderground v.1.15,2013-05-06 03:15:00,
2013-05-05 23:20:00,68.7,60.1,29.94,West,260,1.0,3.0,74,0.00,,,0.01,Wunderground v.1.15,2013-05-06 03:20:00,
2013-05-05 23:25:00,68.9,59.9,29.94,WSW,240,1.0,3.0,73,0.00,,,0.01,Wunderground v.1.15,2013-05-06 03:25:00,
2013-05-05 23:35:00,68.9,59.9,29.94,WSW,240,1.0,3.0,73,0.00,,,0.01,Wunderground v.1.15,2013-05-06 03:35:00,
2013-05-05 23:40:00,68.9,59.9,29.94,WSW,240,0.0,3.0,73,0.00,,,0.01,Wunderground v.1.15,2013-05-06 03:40:00,
2013-05-05 23:45:00,68.8,59.8,29.94,WSW,240,0.0,3.0,73,0.00,,,0.01,Wunderground v.1.15,2013-05-06 03:45:00,
2013-05-05 23:50:00,68.8,60.2,29.94,WSW,240,0.0,3.0,74,0.00,,,0.01,Wunderground v.1.15,2013-05-06 03:50:00,
2013-05-05 23:55:00,68.8,60.2,29.94,WSW,240,0.0,3.0,74,0.00,,,0.01,Wunderground v.1.15,2013-05-06 03:55:00,